Time;durP1;ratioP1;P1;durP2;ratioP2;P2;SDS_P1;SDS_P2;PMS_P1;PMS_P2;Temp;Humidity;BMP_temperature;BMP_pressure;BME280_temperature;BME280_humidity;BME280_pressure;Samples;Min_cycle;Max_cycle;Signal;HPM_P1;HPM_P2
2022/01/18 00:00:11;;;;;;;;;91.80;70.60;;;;;;;;5093318;28;8809;-70
2022/01/18 00:02:39;;;;;;;;;91.80;72.00;;;;;;;;5082503;28;8804;-70
2022/01/18 00:05:06;;;;;;;;;97.60;74.60;;;;;;;;5095149;28;8786;-70
2022/01/18 00:07:31;;;;;;;;;100.80;76.40;;;;;;;;5096704;28;8899;-70
2022/01/18 00:09:56;;;;;;;;;86.33;66.67;;;;;;;;5094611;28;8813;-70
2022/01/18 00:12:54;;;;;;;;;83.67;67.33;;;;;;;;5096227;28;8825;-70
2022/01/18 00:17:51;;;;;;;;;59.67;43.33;;;;;;;;5096148;28;9844;-70
2022/01/18 00:20:21;;;;;;;;;60.50;44.25;;;;;;;;5095250;28;11559;-70
2022/01/18 00:22:47;;;;;;;;;67.75;48.50;;;;;;;;5094320;28;9292;-70
2022/01/18 00:25:12;;;;;;;;;73.33;53.00;;;;;;;;5096081;28;8790;-70
2022/01/18 00:27:38;;;;;;;;;98.25;74.75;;;;;;;;5094605;28;8830;-70
2022/01/18 00:35:16;;;;;;;;;123.50;112.75;;;;;;;;5095900;28;8778;-69
2022/01/18 00:37:51;;;;;;;;;108.75;96.25;;;;;;;;5095762;28;8781;-69
2022/01/18 00:40:16;;;;;;;;;118.00;105.25;;;;;;;;5095804;28;8789;-69
2022/01/18 00:42:41;;;;;;;;;130.67;121.00;;;;;;;;5090659;28;8835;-69
2022/01/18 00:45:07;;;;;;;;;151.75;146.50;;;;;;;;5093841;28;8991;-69
2022/01/18 00:47:32;;;;;;;;;125.00;114.25;;;;;;;;5095872;28;8814;-69
2022/01/18 00:50:01;;;;;;;;;151.33;139.67;;;;;;;;5095306;28;8806;-69
2022/01/18 00:52:28;;;;;;;;;178.75;163.00;;;;;;;;5095539;28;8810;-69
2022/01/18 00:54:53;;;;;;;;;166.00;162.25;;;;;;;;5094983;28;8762;-69
2022/01/18 00:57:18;;;;;;;;;182.25;177.75;;;;;;;;5095547;28;8853;-69
2022/01/18 00:59:46;;;;;;;;;159.00;153.00;;;;;;;;5095024;28;8860;-69
2022/01/18 01:02:11;;;;;;;;;220.50;211.50;;;;;;;;5092494;28;12624;-69
2022/01/18 01:04:41;;;;;;;;;187.75;180.00;;;;;;;;5083210;28;11652;-69
2022/01/18 01:07:07;;;;;;;;;229.50;226.00;;;;;;;;5095119;28;8924;-69
2022/01/18 01:09:33;;;;;;;;;310.25;301.25;;;;;;;;5094953;28;10312;-69
2022/01/18 01:11:59;;;;;;;;;228.60;224.60;;;;;;;;5093228;28;8859;-69
2022/01/18 01:14:26;;;;;;;;;269.40;261.40;;;;;;;;5094722;28;8790;-69
2022/01/18 01:16:59;;;;;;;;;407.00;404.00;;;;;;;;5094838;28;8770;-69
2022/01/18 01:36:28;;;;;;;;;189.60;186.80;;;;;;;;5094571;28;8837;-69
2022/01/18 01:46:37;;;;;;;;;110.75;101.75;;;;;;;;5095069;28;8920;-69
2022/01/18 01:49:06;;;;;;;;;103.75;88.50;;;;;;;;5094838;28;8820;-69
2022/01/18 01:51:32;;;;;;;;;106.00;91.00;;;;;;;;5095067;28;8786;-69
2022/01/18 01:53:59;;;;;;;;;96.50;75.00;;;;;;;;5094382;28;8810;-69
2022/01/18 01:56:25;;;;;;;;;76.00;60.25;;;;;;;;5095153;28;9751;-69
2022/01/18 01:58:50;;;;;;;;;101.00;85.50;;;;;;;;5094478;28;8809;-69
2022/01/18 02:01:16;;;;;;;;;97.75;81.50;;;;;;;;5093595;28;8919;-69
2022/01/18 02:03:42;;;;;;;;;98.50;79.50;;;;;;;;5093669;28;8825;-69
2022/01/18 02:06:07;;;;;;;;;99.50;82.50;;;;;;;;5094949;28;8840;-69
2022/01/18 02:08:32;;;;;;;;;95.00;77.00;;;;;;;;5093175;28;8871;-69
2022/01/18 02:10:57;;;;;;;;;98.50;78.50;;;;;;;;5092939;28;9227;-69
2022/01/18 02:13:23;;;;;;;;;97.50;81.25;;;;;;;;5094548;28;8850;-69
2022/01/18 02:23:55;;;;;;;;;93.50;73.25;;;;;;;;5094008;28;8806;-69
2022/01/18 02:26:20;;;;;;;;;90.00;70.25;;;;;;;;5093247;28;8826;-70
2022/01/18 02:28:45;;;;;;;;;88.75;71.25;;;;;;;;5094247;28;8907;-70
2022/01/18 02:31:11;;;;;;;;;91.25;73.00;;;;;;;;5094495;28;8848;-70
2022/01/18 02:33:36;;;;;;;;;98.00;78.75;;;;;;;;5094640;28;8879;-70
2022/01/18 02:36:07;;;;;;;;;74.50;62.00;;;;;;;;5093732;28;8844;-70
2022/01/18 02:38:33;;;;;;;;;102.80;90.80;;;;;;;;5094147;28;8806;-70
2022/01/18 02:40:58;;;;;;;;;88.00;71.67;;;;;;;;5093877;28;9650;-70
2022/01/18 02:46:07;;;;;;;;;90.40;72.40;;;;;;;;5082323;28;8786;-70
2022/01/18 02:48:33;;;;;;;;;85.33;68.67;;;;;;;;5094309;28;8824;-70
2022/01/18 02:50:58;;;;;;;;;92.00;73.00;;;;;;;;5092229;28;9011;-70
2022/01/18 02:53:23;;;;;;;;;95.67;77.00;;;;;;;;5092433;28;9057;-70
2022/01/18 02:55:53;;;;;;;;;92.00;73.75;;;;;;;;5094095;28;8790;-70
2022/01/18 02:58:27;;;;;;;;;93.00;73.75;;;;;;;;5093692;28;8869;-70
2022/01/18 03:03:30;;;;;;;;;91.20;71.80;;;;;;;;5080339;28;8784;-70
2022/01/18 03:05:57;;;;;;;;;81.50;66.75;;;;;;;;5092363;28;8790;-70
2022/01/18 03:08:23;;;;;;;;;77.50;62.00;;;;;;;;5093534;28;11523;-70
2022/01/18 03:10:48;;;;;;;;;85.25;68.00;;;;;;;;5093661;28;11597;-70
2022/01/18 03:13:14;;;;;;;;;86.00;69.50;;;;;;;;5091975;28;8888;-70
2022/01/18 03:15:39;;;;;;;;;81.00;63.00;;;;;;;;5093663;28;8872;-70
2022/01/18 03:18:08;;;;;;;;;96.33;77.00;;;;;;;;5093255;28;8857;-70
2022/01/18 03:20:34;;;;;;;;;75.20;59.80;;;;;;;;5092345;28;8863;-70
2022/01/18 03:22:59;;;;;;;;;79.75;65.25;;;;;;;;5093064;28;9525;-70
2022/01/18 03:28:06;;;;;;;;;86.50;69.25;;;;;;;;5093114;28;11604;-70
2022/01/18 03:30:31;;;;;;;;;69.20;55.80;;;;;;;;5093843;28;8778;-70
2022/01/18 03:32:57;;;;;;;;;77.25;61.00;;;;;;;;5092091;28;8951;-70
2022/01/18 03:35:23;;;;;;;;;82.33;65.33;;;;;;;;5093376;28;8794;-70
2022/01/18 03:37:48;;;;;;;;;87.00;70.60;;;;;;;;5094326;28;8790;-70
2022/01/18 03:40:13;;;;;;;;;96.50;77.00;;;;;;;;5097173;28;8855;-70
2022/01/18 03:42:43;;;;;;;;;86.25;66.50;;;;;;;;5095152;28;8812;-70
2022/01/18 03:45:10;;;;;;;;;81.20;66.40;;;;;;;;5095411;28;8746;-70
2022/01/18 03:47:36;;;;;;;;;87.20;69.80;;;;;;;;5097097;28;8825;-70
2022/01/18 03:50:02;;;;;;;;;91.75;72.00;;;;;;;;5095467;28;8802;-70
2022/01/18 03:52:28;;;;;;;;;85.40;67.40;;;;;;;;5096774;28;8921;-70
2022/01/18 03:54:54;;;;;;;;;83.00;67.33;;;;;;;;5096656;28;9746;-70
2022/01/18 03:57:20;;;;;;;;;84.20;68.20;;;;;;;;5096570;28;8804;-70
2022/01/18 03:59:45;;;;;;;;;92.75;73.75;;;;;;;;5096740;28;8825;-70
2022/01/18 04:02:10;;;;;;;;;92.75;72.00;;;;;;;;5094772;28;9564;-70
2022/01/18 04:04:36;;;;;;;;;84.33;68.00;;;;;;;;5097092;28;8903;-70
2022/01/18 04:07:02;;;;;;;;;76.60;62.00;;;;;;;;5096376;28;8794;-70
2022/01/18 04:09:27;;;;;;;;;84.25;65.75;;;;;;;;5096510;28;8953;-70
2022/01/18 04:11:53;;;;;;;;;90.50;71.50;;;;;;;;5096307;28;8915;-70
2022/01/18 04:14:19;;;;;;;;;85.50;68.75;;;;;;;;5096661;28;8886;-70
2022/01/18 04:17:00;;;;;;;;;91.00;72.80;;;;;;;;5096234;28;8794;-70
2022/01/18 04:27:25;;;;;;;;;86.00;69.00;;;;;;;;5096451;28;8798;-70
2022/01/18 04:29:50;;;;;;;;;88.75;71.00;;;;;;;;5096073;28;8832;-70
2022/01/18 04:32:15;;;;;;;;;92.00;71.00;;;;;;;;5096263;28;10346;-70
2022/01/18 04:34:40;;;;;;;;;93.50;72.50;;;;;;;;5095932;28;8828;-70
2022/01/18 04:37:06;;;;;;;;;99.50;84.25;;;;;;;;5096417;28;8924;-70
2022/01/18 04:39:37;;;;;;;;;89.00;71.50;;;;;;;;5095628;28;8857;-70
2022/01/18 04:42:02;;;;;;;;;96.00;71.80;;;;;;;;5096119;28;8824;-70
2022/01/18 04:49:49;;;;;;;;;84.75;68.00;;;;;;;;5095233;28;8782;-70
2022/01/18 04:52:15;;;;;;;;;80.75;66.00;;;;;;;;5095776;28;8913;-70
2022/01/18 04:54:43;;;;;;;;;94.75;74.75;;;;;;;;5095638;28;9569;-70
2022/01/18 04:59:34;;;;;;;;;88.00;69.75;;;;;;;;5095943;28;8829;-70
2022/01/18 05:02:00;;;;;;;;;91.00;71.40;;;;;;;;5094113;28;8794;-70
2022/01/18 05:04:25;;;;;;;;;93.50;73.25;;;;;;;;5083735;28;8806;-70
2022/01/18 05:06:52;;;;;;;;;98.50;79.00;;;;;;;;5095420;28;8794;-70
2022/01/18 05:09:18;;;;;;;;;93.60;77.40;;;;;;;;5095797;28;8782;-70
2022/01/18 05:14:39;;;;;;;;;80.20;65.60;;;;;;;;5094738;28;9746;-71
2022/01/18 05:17:21;;;;;;;;;83.00;67.40;;;;;;;;5095620;28;8939;-70
2022/01/18 05:24:57;;;;;;;;;88.00;68.20;;;;;;;;5095265;28;8727;-70
2022/01/18 05:27:22;;;;;;;;;90.80;72.40;;;;;;;;5094168;28;8852;-70
2022/01/18 05:29:48;;;;;;;;;90.00;72.25;;;;;;;;5093569;28;8805;-70
2022/01/18 05:32:13;;;;;;;;;88.00;70.50;;;;;;;;5095342;28;11617;-70
2022/01/18 05:34:38;;;;;;;;;87.00;70.25;;;;;;;;5095037;28;8809;-70
2022/01/18 05:37:04;;;;;;;;;87.75;68.00;;;;;;;;5093980;28;8853;-70
2022/01/18 05:39:29;;;;;;;;;91.25;70.75;;;;;;;;5093565;28;8814;-70
2022/01/18 05:41:54;;;;;;;;;79.00;64.67;;;;;;;;5094801;28;11615;-70
2022/01/18 05:44:22;;;;;;;;;82.50;68.00;;;;;;;;5093822;28;9541;-70
2022/01/18 05:46:48;;;;;;;;;83.50;66.50;;;;;;;;5093500;28;8916;-70
2022/01/18 05:49:13;;;;;;;;;78.00;61.75;;;;;;;;5095248;28;8913;-70
2022/01/18 05:51:41;;;;;;;;;84.00;67.50;;;;;;;;5094737;28;8806;-70
2022/01/18 05:54:07;;;;;;;;;88.75;71.50;;;;;;;;5094715;28;8875;-70
2022/01/18 05:56:32;;;;;;;;;81.50;63.75;;;;;;;;5095113;28;8789;-70
2022/01/18 05:59:02;;;;;;;;;78.25;63.50;;;;;;;;5094326;28;8845;-70
2022/01/18 06:01:33;;;;;;;;;78.75;65.00;;;;;;;;5095081;28;8806;-70
2022/01/18 06:09:24;;;;;;;;;83.25;66.50;;;;;;;;5081160;28;8801;-69
2022/01/18 06:11:49;;;;;;;;;87.67;69.00;;;;;;;;5093382;28;8825;-70
2022/01/18 06:14:15;;;;;;;;;86.75;70.50;;;;;;;;5094267;28;8806;-70
2022/01/18 06:16:40;;;;;;;;;83.75;66.25;;;;;;;;5093237;28;8821;-70
2022/01/18 06:19:05;;;;;;;;;90.00;71.33;;;;;;;;5091971;28;8841;-70
2022/01/18 06:21:31;;;;;;;;;100.00;83.50;;;;;;;;5091191;28;8814;-69
2022/01/18 06:23:56;;;;;;;;;90.50;71.50;;;;;;;;5093587;28;9640;-69
2022/01/18 06:26:21;;;;;;;;;93.67;74.67;;;;;;;;5094480;28;8857;-70
2022/01/18 06:28:47;;;;;;;;;85.25;69.00;;;;;;;;5094354;28;8975;-69
2022/01/18 06:31:13;;;;;;;;;86.50;69.75;;;;;;;;5094560;28;8852;-69
2022/01/18 06:33:38;;;;;;;;;93.75;74.00;;;;;;;;5094320;28;8770;-69
2022/01/18 06:36:04;;;;;;;;;87.75;71.00;;;;;;;;5093763;28;8935;-69
2022/01/18 06:38:29;;;;;;;;;80.25;64.25;;;;;;;;5094102;28;8802;-69
2022/01/18 06:40:54;;;;;;;;;83.75;68.25;;;;;;;;5093810;28;8853;-69
2022/01/18 06:43:20;;;;;;;;;84.33;67.00;;;;;;;;5091651;28;8821;-70
2022/01/18 06:45:45;;;;;;;;;85.75;68.75;;;;;;;;5091066;28;8850;-69
2022/01/18 06:48:10;;;;;;;;;79.00;65.75;;;;;;;;5090709;28;8884;-70
2022/01/18 06:50:36;;;;;;;;;91.33;71.67;;;;;;;;5093581;28;8924;-70
2022/01/18 06:53:01;;;;;;;;;94.00;74.00;;;;;;;;5093333;28;8902;-69
2022/01/18 06:55:26;;;;;;;;;77.25;63.75;;;;;;;;5093698;28;8825;-69
2022/01/18 06:57:52;;;;;;;;;96.67;79.33;;;;;;;;5093275;28;8932;-70
2022/01/18 07:00:18;;;;;;;;;93.67;74.00;;;;;;;;5090029;28;8832;-69
2022/01/18 07:02:43;;;;;;;;;99.75;84.75;;;;;;;;5087429;28;8809;-70
2022/01/18 07:05:08;;;;;;;;;91.00;75.00;;;;;;;;5093526;28;8833;-69
2022/01/18 07:07:34;;;;;;;;;96.67;78.33;;;;;;;;5093684;28;8805;-70
2022/01/18 07:09:59;;;;;;;;;86.25;70.50;;;;;;;;5091937;28;9534;-70
2022/01/18 07:12:25;;;;;;;;;99.67;81.00;;;;;;;;5092648;28;8810;-69
2022/01/18 07:14:51;;;;;;;;;85.60;68.60;;;;;;;;5093379;28;8833;-70
2022/01/18 07:17:16;;;;;;;;;93.00;74.00;;;;;;;;5092283;28;8856;-70
2022/01/18 07:19:41;;;;;;;;;82.50;65.50;;;;;;;;5090610;28;8853;-70
2022/01/18 07:22:07;;;;;;;;;97.25;76.75;;;;;;;;5093513;28;8832;-69
2022/01/18 07:27:07;;;;;;;;;94.00;76.80;;;;;;;;5093608;28;9038;-70
2022/01/18 07:29:32;;;;;;;;;81.00;65.00;;;;;;;;5093686;28;8781;-70
2022/01/18 07:31:58;;;;;;;;;85.75;70.00;;;;;;;;5093685;28;9586;-70
2022/01/18 07:34:23;;;;;;;;;93.00;74.67;;;;;;;;5093289;28;8855;-70
2022/01/18 07:36:49;;;;;;;;;74.33;62.00;;;;;;;;5093055;28;8826;-70
2022/01/18 07:39:14;;;;;;;;;86.33;69.33;;;;;;;;5092852;28;8833;-70
2022/01/18 07:41:40;;;;;;;;;78.67;61.33;;;;;;;;5093430;28;8802;-70
2022/01/18 07:44:05;;;;;;;;;88.75;71.50;;;;;;;;5085916;28;9596;-70
2022/01/18 07:46:30;;;;;;;;;80.00;63.00;;;;;;;;5093512;28;8834;-70
2022/01/18 07:48:56;;;;;;;;;69.50;58.50;;;;;;;;5093076;28;9648;-69
2022/01/18 07:51:21;;;;;;;;;94.50;74.50;;;;;;;;5093093;28;8842;-70
2022/01/18 07:53:46;;;;;;;;;89.50;71.00;;;;;;;;5092788;28;8902;-70
2022/01/18 07:56:12;;;;;;;;;81.50;65.00;;;;;;;;5093105;28;8822;-70
2022/01/18 07:58:37;;;;;;;;;94.25;76.00;;;;;;;;5091662;28;8841;-70
2022/01/18 08:01:03;;;;;;;;;70.25;58.75;;;;;;;;5084366;28;8831;-69
2022/01/18 08:03:29;;;;;;;;;93.75;77.25;;;;;;;;5086028;28;8818;-69
2022/01/18 08:05:54;;;;;;;;;86.20;68.60;;;;;;;;5092690;28;8995;-69
2022/01/18 08:08:20;;;;;;;;;81.67;66.00;;;;;;;;5092775;28;8900;-69
2022/01/18 08:10:45;;;;;;;;;87.75;72.00;;;;;;;;5083286;28;8805;-69
2022/01/18 08:13:11;;;;;;;;;91.50;74.50;;;;;;;;5087922;28;9374;-69
2022/01/18 08:15:38;;;;;;;;;93.50;74.75;;;;;;;;5090936;28;8794;-69
2022/01/18 08:18:08;;;;;;;;;94.75;77.50;;;;;;;;5092633;28;11494;-69
2022/01/18 08:20:34;;;;;;;;;100.20;86.80;;;;;;;;5092566;28;12567;-69
2022/01/18 08:22:59;;;;;;;;;134.00;129.75;;;;;;;;5092548;28;8824;-69
2022/01/18 08:25:24;;;;;;;;;123.20;118.00;;;;;;;;5096062;28;8854;-69
2022/01/18 08:27:50;;;;;;;;;131.50;126.50;;;;;;;;5094615;28;8829;-69
2022/01/18 08:30:19;;;;;;;;;137.00;135.75;;;;;;;;5094357;28;8944;-69
2022/01/18 08:32:45;;;;;;;;;109.00;103.60;;;;;;;;5095879;28;11709;-69
2022/01/18 08:35:11;;;;;;;;;117.00;115.00;;;;;;;;5095889;28;8828;-69
2022/01/18 08:37:36;;;;;;;;;117.75;113.00;;;;;;;;5095735;28;10864;-69
2022/01/18 08:40:02;;;;;;;;;106.33;97.33;;;;;;;;5095518;28;8852;-69
2022/01/18 08:42:28;;;;;;;;;101.80;92.60;;;;;;;;5091242;28;8835;-69
2022/01/18 08:44:53;;;;;;;;;95.50;83.75;;;;;;;;5094515;28;8829;-69
2022/01/18 08:47:18;;;;;;;;;97.25;81.75;;;;;;;;5095143;28;8846;-70
2022/01/18 08:49:44;;;;;;;;;87.75;70.00;;;;;;;;5091130;28;8871;-69
2022/01/18 08:52:10;;;;;;;;;94.50;75.00;;;;;;;;5093494;28;8849;-70
2022/01/18 08:54:35;;;;;;;;;91.50;74.00;;;;;;;;5093823;28;11675;-69
2022/01/18 08:57:01;;;;;;;;;93.50;78.00;;;;;;;;5094014;28;8842;-70
2022/01/18 08:59:28;;;;;;;;;96.40;80.00;;;;;;;;5095493;28;8864;-70
2022/01/18 09:01:53;;;;;;;;;87.60;69.40;;;;;;;;5095186;28;8942;-70
2022/01/18 09:04:19;;;;;;;;;91.67;72.33;;;;;;;;5093544;28;9422;-69
2022/01/18 09:06:48;;;;;;;;;85.00;70.20;;;;;;;;5093802;28;11578;-70
2022/01/18 09:09:16;;;;;;;;;93.60;77.20;;;;;;;;5094050;28;8809;-69
2022/01/18 09:11:41;;;;;;;;;88.60;72.60;;;;;;;;5093127;28;8952;-70
2022/01/18 09:14:07;;;;;;;;;95.00;77.00;;;;;;;;5095584;28;8888;-70
2022/01/18 09:16:32;;;;;;;;;98.00;87.80;;;;;;;;5095611;28;8899;-70
2022/01/18 09:18:57;;;;;;;;;97.00;82.67;;;;;;;;5095006;28;9720;-69
2022/01/18 09:21:25;;;;;;;;;89.67;71.67;;;;;;;;5094895;28;8855;-69
2022/01/18 09:23:50;;;;;;;;;84.50;66.75;;;;;;;;5093803;28;8789;-70
2022/01/18 09:26:15;;;;;;;;;80.33;64.33;;;;;;;;5088824;28;9506;-69
2022/01/18 09:28:41;;;;;;;;;91.50;74.25;;;;;;;;5090984;28;8809;-70
2022/01/18 09:31:06;;;;;;;;;105.00;94.00;;;;;;;;5094097;28;8793;-70
2022/01/18 09:33:32;;;;;;;;;87.50;70.50;;;;;;;;5094687;28;8852;-69
2022/01/18 09:35:57;;;;;;;;;95.33;79.67;;;;;;;;5091580;28;8793;-69
2022/01/18 09:38:22;;;;;;;;;98.67;83.33;;;;;;;;5092408;28;8930;-69
2022/01/18 09:40:49;;;;;;;;;92.75;71.75;;;;;;;;5092573;28;8840;-70
2022/01/18 09:43:15;;;;;;;;;95.60;81.40;;;;;;;;5092690;28;8809;-70
2022/01/18 09:45:42;;;;;;;;;89.00;69.00;;;;;;;;5093613;28;8802;-70
2022/01/18 09:48:08;;;;;;;;;93.60;75.00;;;;;;;;5094169;28;8913;-71
2022/01/18 09:50:34;;;;;;;;;96.00;83.25;;;;;;;;5093946;28;8798;-70
2022/01/18 09:52:59;;;;;;;;;102.25;93.25;;;;;;;;5092778;28;8837;-69
2022/01/18 09:55:26;;;;;;;;;100.25;86.75;;;;;;;;5093100;28;8869;-69
2022/01/18 09:57:52;;;;;;;;;107.50;96.75;;;;;;;;5092127;28;8790;-69
2022/01/18 10:00:18;;;;;;;;;97.80;83.00;;;;;;;;5094208;28;8778;-69
2022/01/18 10:02:44;;;;;;;;;105.25;94.25;;;;;;;;5094232;28;8810;-69
2022/01/18 10:05:37;;;;;;;;;106.25;99.25;;;;;;;;5090690;28;10299;-69
2022/01/18 10:08:08;;;;;;;;;108.50;104.50;;;;;;;;5088462;28;8852;-69
2022/01/18 10:10:44;;;;;;;;;100.00;89.25;;;;;;;;5087181;28;8786;-69
2022/01/18 10:13:16;;;;;;;;;100.80;90.80;;;;;;;;5092603;28;8829;-69
2022/01/18 10:15:56;;;;;;;;;103.25;93.25;;;;;;;;5092780;28;8810;-69
2022/01/18 10:18:30;;;;;;;;;101.75;92.50;;;;;;;;5093901;28;8805;-69
2022/01/18 10:20:57;;;;;;;;;108.00;102.25;;;;;;;;5093945;28;8836;-69
2022/01/18 10:23:23;;;;;;;;;100.40;87.80;;;;;;;;5093938;28;8956;-69
2022/01/18 10:25:49;;;;;;;;;95.20;79.20;;;;;;;;5094191;28;8786;-69
2022/01/18 10:28:27;;;;;;;;;122.33;105.67;;;;;;;;5091415;28;8905;-69
2022/01/18 10:30:52;;;;;;;;;101.00;87.75;;;;;;;;5084755;28;8864;-69
2022/01/18 10:33:22;;;;;;;;;126.75;116.50;;;;;;;;5091529;28;11605;-69
2022/01/18 10:36:11;;;;;;;;;133.75;125.25;;;;;;;;5092386;28;8839;-69
2022/01/18 10:38:37;;;;;;;;;133.00;125.00;;;;;;;;5092176;28;8806;-69
2022/01/18 10:41:21;;;;;;;;;142.60;135.20;;;;;;;;5093826;28;8826;-69
2022/01/18 10:44:01;;;;;;;;;95.25;80.50;;;;;;;;5084615;28;8770;-69
2022/01/18 10:46:32;;;;;;;;;136.60;124.80;;;;;;;;5090742;28;8911;-69
2022/01/18 10:48:57;;;;;;;;;154.75;147.25;;;;;;;;5093969;28;8798;-69
2022/01/18 10:51:27;;;;;;;;;98.00;87.00;;;;;;;;5093291;28;8805;-69
2022/01/18 10:53:58;;;;;;;;;109.00;106.00;;;;;;;;5093345;28;8790;-69
2022/01/18 10:56:23;;;;;;;;;161.50;154.50;;;;;;;;5091989;28;8928;-69
2022/01/18 10:58:52;;;;;;;;;180.75;161.25;;;;;;;;5091701;28;8928;-69
2022/01/18 11:01:21;;;;;;;;;178.20;160.00;;;;;;;;5092986;28;8844;-69
2022/01/18 11:04:06;;;;;;;;;146.00;134.00;;;;;;;;5092034;28;8821;-70
2022/01/18 11:06:32;;;;;;;;;102.00;92.40;;;;;;;;5089667;28;8817;-69
2022/01/18 11:09:06;;;;;;;;;136.25;126.00;;;;;;;;5089188;28;8997;-69
2022/01/18 11:11:32;;;;;;;;;161.60;149.60;;;;;;;;5092231;28;8991;-70
2022/01/18 11:14:01;;;;;;;;;119.50;112.25;;;;;;;;5090441;28;8840;-68
2022/01/18 11:16:27;;;;;;;;;168.83;151.50;;;;;;;;5093117;28;8789;-69
2022/01/18 11:18:54;;;;;;;;;143.25;128.50;;;;;;;;5092508;28;8928;-69
2022/01/18 11:21:22;;;;;;;;;102.20;93.40;;;;;;;;5084748;28;11578;-69
2022/01/18 11:23:47;;;;;;;;;118.60;111.60;;;;;;;;5092476;28;8794;-69
2022/01/18 11:26:15;;;;;;;;;120.25;117.75;;;;;;;;5093098;28;8913;-68
2022/01/18 11:28:41;;;;;;;;;118.00;114.80;;;;;;;;5092791;28;12939;-69
2022/01/18 11:31:10;;;;;;;;;116.60;110.80;;;;;;;;5091386;28;8814;-68
2022/01/18 11:33:37;;;;;;;;;107.00;104.33;;;;;;;;5092865;28;8817;-69
2022/01/18 11:36:02;;;;;;;;;116.20;113.80;;;;;;;;5092933;28;8798;-69
2022/01/18 11:38:50;;;;;;;;;112.20;110.20;;;;;;;;5092650;28;9585;-68
2022/01/18 11:41:25;;;;;;;;;91.00;77.25;;;;;;;;5092934;28;8794;-69
2022/01/18 11:43:51;;;;;;;;;105.60;103.80;;;;;;;;5092792;28;8879;-69
2022/01/18 11:46:19;;;;;;;;;124.00;117.20;;;;;;;;5091028;28;8813;-69
2022/01/18 11:48:45;;;;;;;;;92.33;82.33;;;;;;;;5092943;28;8840;-68
2022/01/18 11:51:16;;;;;;;;;102.50;98.50;;;;;;;;5092346;28;11287;-68
2022/01/18 11:56:37;;;;;;;;;101.40;93.20;;;;;;;;5092386;28;8793;-69
2022/01/18 11:59:19;;;;;;;;;96.00;85.00;;;;;;;;5093052;28;8825;-69
2022/01/18 12:02:05;;;;;;;;;98.80;93.00;;;;;;;;5094269;28;11653;-68
2022/01/18 12:04:48;;;;;;;;;102.20;99.80;;;;;;;;5090660;28;8797;-69
2022/01/18 12:07:33;;;;;;;;;85.40;68.80;;;;;;;;5094316;28;8833;-69
2022/01/18 12:09:59;;;;;;;;;87.80;74.00;;;;;;;;5082509;28;8814;-69
2022/01/18 12:12:39;;;;;;;;;87.00;73.25;;;;;;;;5094087;28;8849;-69
2022/01/18 12:15:26;;;;;;;;;85.25;71.50;;;;;;;;5091273;28;8818;-69
2022/01/18 12:17:57;;;;;;;;;89.00;75.20;;;;;;;;5095489;28;8805;-70
2022/01/18 12:20:32;;;;;;;;;78.00;63.40;;;;;;;;5093209;28;8829;-69
2022/01/18 12:23:08;;;;;;;;;88.00;74.25;;;;;;;;5087321;28;8802;-69
2022/01/18 12:25:35;;;;;;;;;87.67;71.67;;;;;;;;5096000;28;8778;-69
2022/01/18 12:28:20;;;;;;;;;94.60;84.60;;;;;;;;5095768;28;8782;-69
2022/01/18 12:31:04;;;;;;;;;83.75;67.50;;;;;;;;5095636;28;8782;-69
2022/01/18 12:33:42;;;;;;;;;87.00;74.20;;;;;;;;5089504;28;8813;-69
2022/01/18 12:36:27;;;;;;;;;92.80;77.20;;;;;;;;5091170;28;8804;-69
2022/01/18 12:38:59;;;;;;;;;85.00;70.75;;;;;;;;5092188;28;9835;-69
2022/01/18 12:41:41;;;;;;;;;84.75;71.75;;;;;;;;5095778;28;9777;-69
2022/01/18 12:44:21;;;;;;;;;86.67;72.67;;;;;;;;5085061;28;8828;-68
2022/01/18 12:46:54;;;;;;;;;93.00;85.25;;;;;;;;5095155;28;11690;-69
2022/01/18 12:49:20;;;;;;;;;78.25;64.25;;;;;;;;5094223;28;8806;-69
2022/01/18 12:51:46;;;;;;;;;87.75;73.50;;;;;;;;5094914;28;9710;-69
2022/01/18 12:54:12;;;;;;;;;82.75;69.00;;;;;;;;5094497;28;8813;-69
2022/01/18 12:56:38;;;;;;;;;95.50;83.50;;;;;;;;5094984;28;8850;-69
2022/01/18 12:59:04;;;;;;;;;90.75;81.00;;;;;;;;5086819;28;11631;-69
2022/01/18 13:01:31;;;;;;;;;103.00;101.00;;;;;;;;5087151;28;10539;-69
2022/01/18 13:03:57;;;;;;;;;83.80;70.20;;;;;;;;5095094;28;9030;-70
2022/01/18 13:06:23;;;;;;;;;94.80;88.80;;;;;;;;5095050;28;8837;-70
2022/01/18 13:08:53;;;;;;;;;138.33;135.33;;;;;;;;5094213;28;8765;-70
2022/01/18 13:11:19;;;;;;;;;84.75;70.50;;;;;;;;5094627;28;8800;-70
2022/01/18 13:13:53;;;;;;;;;82.50;67.75;;;;;;;;5093564;28;8855;-70
2022/01/18 13:25:14;;;;;;;;;99.00;96.25;;;;;;;;5089204;28;8914;-70
2022/01/18 13:27:17;;;;;;;;;100.67;99.83;;;;;;;;5094205;28;8899;-70
2022/01/18 13:29:43;;;;;;;;;92.67;85.17;;;;;;;;5081279;28;9020;-70
2022/01/18 13:32:15;;;;;;;;;115.67;113.00;;;;;;;;5093046;28;9669;-70
2022/01/18 13:34:41;;;;;;;;;125.17;122.33;;;;;;;;5094452;28;8967;-70
2022/01/18 13:37:08;;;;;;;;;133.80;133.80;;;;;;;;5094331;28;11583;-70
2022/01/18 13:39:37;;;;;;;;;135.80;135.40;;;;;;;;5094648;28;8837;-70
2022/01/18 13:42:02;;;;;;;;;135.33;134.67;;;;;;;;5094305;28;11472;-70
2022/01/18 13:44:28;;;;;;;;;123.80;123.80;;;;;;;;5087585;28;8852;-70
2022/01/18 13:46:54;;;;;;;;;145.60;144.80;;;;;;;;5094092;28;8794;-70
2022/01/18 13:49:24;;;;;;;;;151.60;150.20;;;;;;;;5093041;28;10384;-70
2022/01/18 13:52:08;;;;;;;;;176.50;174.83;;;;;;;;5093553;28;8790;-70
2022/01/18 13:54:47;;;;;;;;;103.83;102.33;;;;;;;;5093060;28;8829;-70
2022/01/18 13:57:13;;;;;;;;;106.33;104.17;;;;;;;;5083112;28;8891;-70
2022/01/18 13:59:39;;;;;;;;;119.83;118.50;;;;;;;;5086297;28;9513;-70
2022/01/18 14:02:18;;;;;;;;;150.00;149.00;;;;;;;;5089865;28;9713;-70
2022/01/18 14:04:44;;;;;;;;;151.86;150.57;;;;;;;;5094099;28;8790;-70
2022/01/18 14:07:10;;;;;;;;;155.00;152.17;;;;;;;;5093911;28;8785;-70
2022/01/18 14:09:36;;;;;;;;;140.40;140.00;;;;;;;;5094304;28;8902;-70
2022/01/18 14:12:02;;;;;;;;;127.25;125.75;;;;;;;;5093225;28;8822;-70
2022/01/18 14:14:33;;;;;;;;;164.40;164.40;;;;;;;;5092640;28;8898;-70
2022/01/18 14:16:58;;;;;;;;;145.83;143.83;;;;;;;;5093677;28;8817;-70
2022/01/18 14:19:27;;;;;;;;;171.50;171.25;;;;;;;;5093869;28;8838;-70
2022/01/18 14:21:53;;;;;;;;;140.83;140.83;;;;;;;;5093430;28;8749;-70
2022/01/18 14:24:20;;;;;;;;;171.20;169.40;;;;;;;;5093898;28;8781;-70
2022/01/18 14:26:48;;;;;;;;;176.00;174.43;;;;;;;;5093471;28;8810;-70
2022/01/18 14:29:15;;;;;;;;;165.00;165.00;;;;;;;;5092657;28;8926;-70
2022/01/18 14:31:40;;;;;;;;;150.17;149.00;;;;;;;;5093318;28;8797;-70
2022/01/18 14:34:06;;;;;;;;;189.17;187.50;;;;;;;;5093516;28;8805;-70
2022/01/18 14:36:31;;;;;;;;;180.00;178.20;;;;;;;;5093786;28;8856;-70
2022/01/18 14:39:07;;;;;;;;;144.80;144.80;;;;;;;;5093159;28;8848;-70
2022/01/18 14:41:32;;;;;;;;;144.60;144.60;;;;;;;;5093623;28;9014;-70
2022/01/18 14:44:03;;;;;;;;;136.20;135.40;;;;;;;;5089033;28;8837;-70
2022/01/18 14:46:55;;;;;;;;;167.60;163.40;;;;;;;;5080466;28;8939;-70
2022/01/18 14:49:14;;;;;;;;;207.71;206.86;;;;;;;;5092868;28;9727;-70
2022/01/18 14:51:39;;;;;;;;;130.80;129.20;;;;;;;;5091312;28;8840;-70
2022/01/18 14:54:07;;;;;;;;;124.00;123.75;;;;;;;;5092956;28;8867;-70
2022/01/18 14:56:32;;;;;;;;;124.40;124.00;;;;;;;;5092250;28;8782;-70
2022/01/18 14:58:57;;;;;;;;;144.80;142.20;;;;;;;;5090962;28;8853;-70
2022/01/18 15:01:24;;;;;;;;;125.33;123.33;;;;;;;;5083438;28;8793;-70
2022/01/18 15:03:49;;;;;;;;;172.80;171.80;;;;;;;;5092982;28;8774;-70
2022/01/18 15:06:14;;;;;;;;;137.00;137.00;;;;;;;;5091640;28;9569;-70
2022/01/18 15:08:39;;;;;;;;;113.80;113.80;;;;;;;;5091486;28;8892;-70
2022/01/18 15:11:05;;;;;;;;;110.00;109.75;;;;;;;;5093439;28;8818;-70
2022/01/18 15:13:30;;;;;;;;;166.80;166.20;;;;;;;;5092724;28;8817;-70
2022/01/18 15:15:57;;;;;;;;;147.00;145.25;;;;;;;;5093283;28;8825;-70
2022/01/18 15:18:22;;;;;;;;;118.83;118.67;;;;;;;;5092882;28;8801;-70
2022/01/18 15:20:47;;;;;;;;;115.80;115.80;;;;;;;;5092832;28;8802;-70
2022/01/18 15:23:12;;;;;;;;;90.00;82.00;;;;;;;;5091409;28;10053;-70
2022/01/18 15:25:38;;;;;;;;;85.60;75.80;;;;;;;;5093299;28;9007;-70
2022/01/18 15:28:03;;;;;;;;;71.75;59.50;;;;;;;;5093153;28;9542;-70
2022/01/18 15:30:32;;;;;;;;;67.50;56.75;;;;;;;;5093558;28;8847;-70
2022/01/18 15:32:58;;;;;;;;;58.00;49.80;;;;;;;;5092210;28;9692;-70
2022/01/18 15:35:24;;;;;;;;;72.75;59.50;;;;;;;;5093292;28;8780;-70
2022/01/18 15:37:49;;;;;;;;;68.75;57.75;;;;;;;;5092468;28;11846;-70
2022/01/18 15:40:15;;;;;;;;;65.75;56.00;;;;;;;;5093181;28;8841;-70
2022/01/18 15:42:41;;;;;;;;;74.50;61.00;;;;;;;;5091280;28;8921;-70
2022/01/18 15:45:08;;;;;;;;;73.20;61.40;;;;;;;;5092557;28;8883;-70
2022/01/18 15:47:33;;;;;;;;;81.50;66.00;;;;;;;;5091364;28;8813;-70
2022/01/18 15:49:58;;;;;;;;;68.75;56.75;;;;;;;;5092823;28;8802;-70
2022/01/18 15:52:25;;;;;;;;;71.33;58.00;;;;;;;;5090546;28;8940;-70
2022/01/18 15:54:51;;;;;;;;;72.50;60.50;;;;;;;;5091520;28;8841;-70